Fort Nelson Airport
CYYE : now visible

Airfield :











YOU CAN JOIN US ON...

 
LOGIN :

Register | Disclaimer

   EN    FR    IT 

 









Legend :    VFR   Marginal VFR   IFR   Intensive IFR   Very Intensive IFR
Visi :
Ceiling :
>= 8 km
>= 3000ft
5 to 8 km
1000 to 3000 ft
1500m to 5 km
500 to 1000 ft
800 to 1500m
200 to 500 ft
< 800m
< 200 ft
Symbols :   Thunderstorms  Fog  Heavy snow  Heavy precipitations  Wind > 20 kt







- Airport Elevation : 1253 ft
- IATA code : YYE


CYYE - Fort Nelson

CURRENT METAR :
  • 162220Z 20004KT 150V230 10SM OVC010 08/06 A2967 RMK SC8 CIG RAG SLP064

EXPIRED METARs :
  • 162200Z 14002KT 10SM BKN015 OVC040 08/06 A2967 RMK SC7SC1 SLP064
  • 162100Z 00000KT 15SM BKN019 OVC037 08/05 A2968 RMK SC6SC2 SLP065
  • 162000Z VRB02KT 15SM BKN012 OVC045 08/05 A2969 RMK SC7SC1 SLP069

TAF TAF CYYE
Valid from the 16 at 19:00 until the 17 at 07:00 UTC


161841Z 1619/1707 VRB03KT P6SM SCT008 OVC012
TEMPO 1619/1621 4SM -SHRA BR BKN012
FM162100 VRB03KT P6SM SCT010 OVC025
TEMPO 1621/1707 4SM -SHRA BR OVC010 RMK NXT FCST BY 170100Z
No reported NOTAMs for that airfield.



MET'MAP, your aeronautical weather chart ! - Copyright ORBIFLY December 2007 - Disclaimer

ORBIFLY MET'MAP TEAM :

Programming & Development : Alexandra Zaïnal
Concept & Development : Baudouin d'Aumeries
Co-Development & Prog : Marc-Olivier Méhu
Technical & hardware support : Manuel Goepfert

Contact : metmap@orbifly.com




SOURCES & CREDITS :

   NOAA       Earth
Advisory